sensor_id;sensor_type;location;lat;lon;timestamp;P1;durP1;ratioP1;P2;durP2;ratioP2
4043;SDS011;2036;51.578;7.108;2022-08-25T00:01:48;426.57;;;392.47;;
4043;SDS011;2036;51.578;7.108;2022-08-25T00:04:22;289.23;;;262.10;;
4043;SDS011;2036;51.578;7.108;2022-08-25T00:06:49;551.90;;;508.97;;
4043;SDS011;2036;51.578;7.108;2022-08-25T00:09:18;553.93;;;510.90;;
4043;SDS011;2036;51.578;7.108;2022-08-25T00:11:47;500.87;;;461.50;;
4043;SDS011;2036;51.578;7.108;2022-08-25T00:14:19;280.37;;;253.63;;
4043;SDS011;2036;51.578;7.108;2022-08-25T00:16:48;264.47;;;238.73;;
4043;SDS011;2036;51.578;7.108;2022-08-25T00:19:19;335.97;;;305.17;;
4043;SDS011;2036;51.578;7.108;2022-08-25T00:21:50;333.17;;;302.90;;
4043;SDS011;2036;51.578;7.108;2022-08-25T00:24:16;231.13;;;206.17;;
4043;SDS011;2036;51.578;7.108;2022-08-25T00:26:46;271.10;;;244.97;;
4043;SDS011;2036;51.578;7.108;2022-08-25T00:29:15;366.33;;;333.83;;
4043;SDS011;2036;51.578;7.108;2022-08-25T00:31:41;352.50;;;321.40;;
4043;SDS011;2036;51.578;7.108;2022-08-25T00:34:08;259.33;;;233.40;;
4043;SDS011;2036;51.578;7.108;2022-08-25T00:36:39;308.27;;;278.20;;
4043;SDS011;2036;51.578;7.108;2022-08-25T00:39:07;245.87;;;219.57;;
4043;SDS011;2036;51.578;7.108;2022-08-25T00:41:34;231.50;;;207.27;;
4043;SDS011;2036;51.578;7.108;2022-08-25T00:44:21;320.40;;;292.13;;
4043;SDS011;2036;51.578;7.108;2022-08-25T00:46:50;296.33;;;269.23;;
4043;SDS011;2036;51.578;7.108;2022-08-25T00:49:23;321.63;;;293.00;;
4043;SDS011;2036;51.578;7.108;2022-08-25T00:52:26;271.87;;;245.00;;
4043;SDS011;2036;51.578;7.108;2022-08-25T00:55:17;285.73;;;258.83;;
4043;SDS011;2036;51.578;7.108;2022-08-25T00:58:10;305.83;;;276.83;;
4043;SDS011;2036;51.578;7.108;2022-08-25T01:00:45;417.47;;;376.43;;
4043;SDS011;2036;51.578;7.108;2022-08-25T01:03:15;370.07;;;335.87;;
4043;SDS011;2036;51.578;7.108;2022-08-25T01:05:43;240.53;;;215.73;;
4043;SDS011;2036;51.578;7.108;2022-08-25T01:08:11;678.20;;;621.67;;
4043;SDS011;2036;51.578;7.108;2022-08-25T01:10:38;267.67;;;241.73;;
4043;SDS011;2036;51.578;7.108;2022-08-25T01:13:09;524.57;;;477.90;;
4043;SDS011;2036;51.578;7.108;2022-08-25T01:16:12;536.07;;;487.63;;
4043;SDS011;2036;51.578;7.108;2022-08-25T01:18:50;322.97;;;292.37;;
4043;SDS011;2036;51.578;7.108;2022-08-25T01:21:21;709.03;;;651.13;;
4043;SDS011;2036;51.578;7.108;2022-08-25T01:23:49;679.87;;;620.47;;
4043;SDS011;2036;51.578;7.108;2022-08-25T01:26:20;648.07;;;591.43;;
4043;SDS011;2036;51.578;7.108;2022-08-25T01:28:52;535.50;;;487.53;;
4043;SDS011;2036;51.578;7.108;2022-08-25T01:31:37;718.33;;;658.20;;
4043;SDS011;2036;51.578;7.108;2022-08-25T01:34:06;570.40;;;519.73;;
4043;SDS011;2036;51.578;7.108;2022-08-25T01:36:39;583.97;;;529.97;;
4043;SDS011;2036;51.578;7.108;2022-08-25T01:39:07;463.27;;;418.57;;
4043;SDS011;2036;51.578;7.108;2022-08-25T01:44:18;500.57;;;453.37;;
4043;SDS011;2036;51.578;7.108;2022-08-25T01:46:44;618.03;;;564.40;;
4043;SDS011;2036;51.578;7.108;2022-08-25T01:49:10;472.57;;;426.53;;
4043;SDS011;2036;51.578;7.108;2022-08-25T01:51:43;556.97;;;505.53;;
4043;SDS011;2036;51.578;7.108;2022-08-25T01:54:16;313.40;;;280.90;;
4043;SDS011;2036;51.578;7.108;2022-08-25T01:56:42;638.23;;;584.73;;
4043;SDS011;2036;51.578;7.108;2022-08-25T01:59:08;427.00;;;387.40;;
4043;SDS011;2036;51.578;7.108;2022-08-25T02:01:34;357.33;;;323.07;;
4043;SDS011;2036;51.578;7.108;2022-08-25T02:04:00;304.97;;;275.97;;
4043;SDS011;2036;51.578;7.108;2022-08-25T02:06:27;298.50;;;270.97;;
4043;SDS011;2036;51.578;7.108;2022-08-25T02:08:59;270.87;;;244.27;;
4043;SDS011;2036;51.578;7.108;2022-08-25T02:11:40;320.07;;;292.30;;
4043;SDS011;2036;51.578;7.108;2022-08-25T02:14:10;336.50;;;303.73;;
4043;SDS011;2036;51.578;7.108;2022-08-25T02:16:43;288.10;;;261.30;;
4043;SDS011;2036;51.578;7.108;2022-08-25T02:19:12;315.93;;;287.83;;
4043;SDS011;2036;51.578;7.108;2022-08-25T02:21:39;362.10;;;331.17;;
4043;SDS011;2036;51.578;7.108;2022-08-25T02:24:07;277.37;;;250.63;;
4043;SDS011;2036;51.578;7.108;2022-08-25T02:26:34;291.23;;;263.60;;
4043;SDS011;2036;51.578;7.108;2022-08-25T02:29:00;352.50;;;319.27;;
4043;SDS011;2036;51.578;7.108;2022-08-25T02:31:28;614.03;;;559.90;;
4043;SDS011;2036;51.578;7.108;2022-08-25T02:33:54;610.40;;;558.10;;
4043;SDS011;2036;51.578;7.108;2022-08-25T02:36:21;689.60;;;630.67;;
4043;SDS011;2036;51.578;7.108;2022-08-25T02:38:47;654.70;;;596.67;;
4043;SDS011;2036;51.578;7.108;2022-08-25T02:41:18;470.70;;;424.87;;
4043;SDS011;2036;51.578;7.108;2022-08-25T02:43:47;316.37;;;287.37;;
4043;SDS011;2036;51.578;7.108;2022-08-25T02:46:15;303.27;;;275.53;;
4043;SDS011;2036;51.578;7.108;2022-08-25T02:48:44;353.97;;;323.17;;
4043;SDS011;2036;51.578;7.108;2022-08-25T02:51:10;321.03;;;292.30;;
4043;SDS011;2036;51.578;7.108;2022-08-25T02:53:37;321.20;;;293.13;;
4043;SDS011;2036;51.578;7.108;2022-08-25T02:56:05;354.50;;;321.97;;
4043;SDS011;2036;51.578;7.108;2022-08-25T02:58:35;619.27;;;566.80;;
4043;SDS011;2036;51.578;7.108;2022-08-25T03:01:02;684.73;;;628.20;;
4043;SDS011;2036;51.578;7.108;2022-08-25T03:03:28;363.57;;;329.97;;
4043;SDS011;2036;51.578;7.108;2022-08-25T03:05:54;672.27;;;615.63;;
4043;SDS011;2036;51.578;7.108;2022-08-25T03:08:21;457.53;;;411.67;;
4043;SDS011;2036;51.578;7.108;2022-08-25T03:10:48;726.00;;;666.27;;
4043;SDS011;2036;51.578;7.108;2022-08-25T03:13:14;338.27;;;303.57;;
4043;SDS011;2036;51.578;7.108;2022-08-25T03:15:41;471.30;;;424.57;;
4043;SDS011;2036;51.578;7.108;2022-08-25T03:18:07;487.60;;;440.80;;
4043;SDS011;2036;51.578;7.108;2022-08-25T03:20:35;344.50;;;309.23;;
4043;SDS011;2036;51.578;7.108;2022-08-25T03:23:04;690.60;;;632.03;;
4043;SDS011;2036;51.578;7.108;2022-08-25T03:25:30;700.77;;;642.47;;
4043;SDS011;2036;51.578;7.108;2022-08-25T03:28:15;441.93;;;404.67;;
4043;SDS011;2036;51.578;7.108;2022-08-25T03:30:41;702.50;;;643.90;;
4043;SDS011;2036;51.578;7.108;2022-08-25T03:33:09;528.10;;;479.23;;
4043;SDS011;2036;51.578;7.108;2022-08-25T03:35:35;563.93;;;512.10;;
4043;SDS011;2036;51.578;7.108;2022-08-25T03:38:01;632.27;;;576.33;;
4043;SDS011;2036;51.578;7.108;2022-08-25T03:40:28;384.50;;;346.60;;
4043;SDS011;2036;51.578;7.108;2022-08-25T03:42:54;482.27;;;436.43;;
4043;SDS011;2036;51.578;7.108;2022-08-25T03:45:21;319.70;;;291.63;;
4043;SDS011;2036;51.578;7.108;2022-08-25T03:47:48;556.37;;;505.67;;
4043;SDS011;2036;51.578;7.108;2022-08-25T03:50:16;301.37;;;273.57;;
4043;SDS011;2036;51.578;7.108;2022-08-25T03:52:43;326.50;;;297.57;;
4043;SDS011;2036;51.578;7.108;2022-08-25T03:55:11;671.97;;;615.30;;
4043;SDS011;2036;51.578;7.108;2022-08-25T03:57:38;544.50;;;493.30;;
4043;SDS011;2036;51.578;7.108;2022-08-25T04:00:08;490.10;;;443.00;;
4043;SDS011;2036;51.578;7.108;2022-08-25T04:02:36;629.60;;;574.60;;
4043;SDS011;2036;51.578;7.108;2022-08-25T04:05:02;627.47;;;569.57;;
4043;SDS011;2036;51.578;7.108;2022-08-25T04:07:28;543.80;;;493.87;;
4043;SDS011;2036;51.578;7.108;2022-08-25T04:09:54;447.73;;;404.03;;
4043;SDS011;2036;51.578;7.108;2022-08-25T04:12:20;656.87;;;600.43;;
4043;SDS011;2036;51.578;7.108;2022-08-25T04:14:47;322.67;;;292.53;;
4043;SDS011;2036;51.578;7.108;2022-08-25T04:17:13;330.90;;;300.80;;
4043;SDS011;2036;51.578;7.108;2022-08-25T04:19:39;434.77;;;399.03;;
4043;SDS011;2036;51.578;7.108;2022-08-25T04:22:05;430.03;;;394.97;;
4043;SDS011;2036;51.578;7.108;2022-08-25T04:24:31;434.70;;;399.57;;
4043;SDS011;2036;51.578;7.108;2022-08-25T04:26:57;345.43;;;312.63;;
4043;SDS011;2036;51.578;7.108;2022-08-25T04:29:23;415.07;;;379.33;;
4043;SDS011;2036;51.578;7.108;2022-08-25T04:31:51;575.20;;;521.07;;
4043;SDS011;2036;51.578;7.108;2022-08-25T04:34:19;262.57;;;235.53;;
4043;SDS011;2036;51.578;7.108;2022-08-25T04:36:48;405.83;;;372.23;;
4043;SDS011;2036;51.578;7.108;2022-08-25T04:39:17;622.43;;;566.87;;
4043;SDS011;2036;51.578;7.108;2022-08-25T04:41:48;694.70;;;636.37;;
4043;SDS011;2036;51.578;7.108;2022-08-25T04:44:15;621.53;;;569.60;;
4043;SDS011;2036;51.578;7.108;2022-08-25T04:46:41;539.60;;;489.93;;
4043;SDS011;2036;51.578;7.108;2022-08-25T04:49:07;636.87;;;583.63;;
4043;SDS011;2036;51.578;7.108;2022-08-25T04:51:36;570.37;;;520.17;;
4043;SDS011;2036;51.578;7.108;2022-08-25T04:54:06;688.57;;;628.17;;
4043;SDS011;2036;51.578;7.108;2022-08-25T04:56:35;589.97;;;535.10;;
4043;SDS011;2036;51.578;7.108;2022-08-25T04:59:09;375.83;;;341.70;;
4043;SDS011;2036;51.578;7.108;2022-08-25T05:01:37;348.90;;;315.37;;
4043;SDS011;2036;51.578;7.108;2022-08-25T05:04:06;618.23;;;564.40;;
4043;SDS011;2036;51.578;7.108;2022-08-25T05:06:34;526.53;;;474.97;;
4043;SDS011;2036;51.578;7.108;2022-08-25T05:09:02;537.50;;;489.60;;
4043;SDS011;2036;51.578;7.108;2022-08-25T05:11:29;579.70;;;527.97;;
4043;SDS011;2036;51.578;7.108;2022-08-25T05:13:56;552.67;;;504.57;;
4043;SDS011;2036;51.578;7.108;2022-08-25T05:16:24;522.90;;;473.43;;
4043;SDS011;2036;51.578;7.108;2022-08-25T05:18:51;490.90;;;444.70;;
4043;SDS011;2036;51.578;7.108;2022-08-25T05:21:20;511.17;;;463.40;;
4043;SDS011;2036;51.578;7.108;2022-08-25T05:23:49;552.73;;;499.37;;
4043;SDS011;2036;51.578;7.108;2022-08-25T05:26:20;459.27;;;412.70;;
4043;SDS011;2036;51.578;7.108;2022-08-25T05:28:50;574.10;;;521.03;;
4043;SDS011;2036;51.578;7.108;2022-08-25T05:31:19;436.97;;;392.10;;
4043;SDS011;2036;51.578;7.108;2022-08-25T05:33:46;524.20;;;475.47;;
4043;SDS011;2036;51.578;7.108;2022-08-25T05:36:13;410.40;;;366.27;;
4043;SDS011;2036;51.578;7.108;2022-08-25T05:38:40;520.80;;;470.17;;
4043;SDS011;2036;51.578;7.108;2022-08-25T05:41:07;470.83;;;424.33;;
4043;SDS011;2036;51.578;7.108;2022-08-25T05:43:37;562.23;;;510.17;;
4043;SDS011;2036;51.578;7.108;2022-08-25T05:46:05;461.77;;;415.60;;
4043;SDS011;2036;51.578;7.108;2022-08-25T05:48:32;503.57;;;453.00;;
4043;SDS011;2036;51.578;7.108;2022-08-25T05:50:58;667.90;;;610.40;;
4043;SDS011;2036;51.578;7.108;2022-08-25T05:53:28;616.20;;;559.97;;
4043;SDS011;2036;51.578;7.108;2022-08-25T05:55:55;552.43;;;500.33;;
4043;SDS011;2036;51.578;7.108;2022-08-25T05:58:24;649.10;;;591.93;;
4043;SDS011;2036;51.578;7.108;2022-08-25T06:00:53;520.87;;;472.70;;
4043;SDS011;2036;51.578;7.108;2022-08-25T06:03:20;657.63;;;600.73;;
4043;SDS011;2036;51.578;7.108;2022-08-25T06:05:46;356.87;;;324.20;;
4043;SDS011;2036;51.578;7.108;2022-08-25T06:08:13;701.57;;;641.13;;
4043;SDS011;2036;51.578;7.108;2022-08-25T06:10:40;519.27;;;470.30;;
4043;SDS011;2036;51.578;7.108;2022-08-25T06:13:06;613.53;;;558.00;;
4043;SDS011;2036;51.578;7.108;2022-08-25T06:15:32;431.10;;;395.43;;
4043;SDS011;2036;51.578;7.108;2022-08-25T06:17:59;487.00;;;441.40;;
4043;SDS011;2036;51.578;7.108;2022-08-25T06:20:27;470.30;;;430.00;;
4043;SDS011;2036;51.578;7.108;2022-08-25T06:22:55;404.07;;;368.67;;
4043;SDS011;2036;51.578;7.108;2022-08-25T06:25:23;497.67;;;450.90;;
4043;SDS011;2036;51.578;7.108;2022-08-25T06:27:51;422.60;;;383.07;;
4043;SDS011;2036;51.578;7.108;2022-08-25T06:30:20;414.63;;;378.30;;
4043;SDS011;2036;51.578;7.108;2022-08-25T06:32:48;427.30;;;389.23;;
4043;SDS011;2036;51.578;7.108;2022-08-25T06:35:15;441.00;;;403.03;;
4043;SDS011;2036;51.578;7.108;2022-08-25T06:37:43;446.97;;;408.93;;
4043;SDS011;2036;51.578;7.108;2022-08-25T06:40:10;436.80;;;398.23;;
4043;SDS011;2036;51.578;7.108;2022-08-25T06:42:37;435.23;;;398.47;;
4043;SDS011;2036;51.578;7.108;2022-08-25T06:45:04;420.50;;;386.37;;
4043;SDS011;2036;51.578;7.108;2022-08-25T06:47:31;381.40;;;348.43;;
4043;SDS011;2036;51.578;7.108;2022-08-25T06:49:57;409.33;;;374.50;;
4043;SDS011;2036;51.578;7.108;2022-08-25T06:52:22;406.60;;;371.40;;
4043;SDS011;2036;51.578;7.108;2022-08-25T06:54:48;344.70;;;314.10;;
4043;SDS011;2036;51.578;7.108;2022-08-25T06:57:14;356.60;;;325.03;;
4043;SDS011;2036;51.578;7.108;2022-08-25T06:59:40;359.80;;;328.00;;
4043;SDS011;2036;51.578;7.108;2022-08-25T07:02:06;330.13;;;298.90;;
4043;SDS011;2036;51.578;7.108;2022-08-25T07:04:34;336.77;;;306.43;;
4043;SDS011;2036;51.578;7.108;2022-08-25T07:07:00;278.93;;;251.70;;
4043;SDS011;2036;51.578;7.108;2022-08-25T07:09:27;310.57;;;280.33;;
4043;SDS011;2036;51.578;7.108;2022-08-25T07:11:53;385.63;;;352.20;;
4043;SDS011;2036;51.578;7.108;2022-08-25T07:14:19;258.73;;;233.60;;
4043;SDS011;2036;51.578;7.108;2022-08-25T07:16:46;291.20;;;263.03;;
4043;SDS011;2036;51.578;7.108;2022-08-25T07:19:12;309.67;;;280.63;;
4043;SDS011;2036;51.578;7.108;2022-08-25T07:21:38;387.13;;;354.47;;
4043;SDS011;2036;51.578;7.108;2022-08-25T07:24:07;344.53;;;313.60;;
4043;SDS011;2036;51.578;7.108;2022-08-25T07:26:36;377.63;;;343.83;;
4043;SDS011;2036;51.578;7.108;2022-08-25T07:29:06;552.83;;;510.27;;
4043;SDS011;2036;51.578;7.108;2022-08-25T07:31:49;566.03;;;522.47;;
4043;SDS011;2036;51.578;7.108;2022-08-25T07:34:15;563.10;;;519.77;;
4043;SDS011;2036;51.578;7.108;2022-08-25T07:37:00;583.33;;;540.17;;
4043;SDS011;2036;51.578;7.108;2022-08-25T07:39:28;499.17;;;460.10;;
4043;SDS011;2036;51.578;7.108;2022-08-25T07:41:55;411.30;;;380.07;;
4043;SDS011;2036;51.578;7.108;2022-08-25T07:44:22;386.63;;;356.63;;
4043;SDS011;2036;51.578;7.108;2022-08-25T07:46:49;404.87;;;373.30;;
4043;SDS011;2036;51.578;7.108;2022-08-25T07:49:17;342.93;;;315.20;;
4043;SDS011;2036;51.578;7.108;2022-08-25T07:51:44;355.30;;;326.57;;
4043;SDS011;2036;51.578;7.108;2022-08-25T07:54:10;421.53;;;388.50;;
4043;SDS011;2036;51.578;7.108;2022-08-25T07:56:36;433.20;;;400.40;;
4043;SDS011;2036;51.578;7.108;2022-08-25T07:59:05;482.53;;;446.57;;
4043;SDS011;2036;51.578;7.108;2022-08-25T08:01:32;458.77;;;423.97;;
4043;SDS011;2036;51.578;7.108;2022-08-25T08:03:57;360.00;;;331.50;;
4043;SDS011;2036;51.578;7.108;2022-08-25T08:06:23;355.03;;;326.50;;
4043;SDS011;2036;51.578;7.108;2022-08-25T08:08:52;409.03;;;377.00;;
4043;SDS011;2036;51.578;7.108;2022-08-25T08:11:20;366.10;;;337.33;;
4043;SDS011;2036;51.578;7.108;2022-08-25T08:13:51;444.93;;;411.20;;
4043;SDS011;2036;51.578;7.108;2022-08-25T08:16:19;304.03;;;277.77;;
4043;SDS011;2036;51.578;7.108;2022-08-25T08:18:47;301.33;;;275.73;;
4043;SDS011;2036;51.578;7.108;2022-08-25T08:21:14;201.33;;;180.93;;
4043;SDS011;2036;51.578;7.108;2022-08-25T08:23:47;218.17;;;197.17;;
4043;SDS011;2036;51.578;7.108;2022-08-25T08:26:15;288.43;;;264.03;;
4043;SDS011;2036;51.578;7.108;2022-08-25T08:28:41;167.17;;;148.87;;
4043;SDS011;2036;51.578;7.108;2022-08-25T08:31:13;167.30;;;146.23;;
4043;SDS011;2036;51.578;7.108;2022-08-25T08:33:43;169.77;;;150.07;;
4043;SDS011;2036;51.578;7.108;2022-08-25T08:36:14;168.73;;;150.37;;
4043;SDS011;2036;51.578;7.108;2022-08-25T08:38:40;179.07;;;159.77;;
4043;SDS011;2036;51.578;7.108;2022-08-25T08:46:56;172.50;;;153.60;;
4043;SDS011;2036;51.578;7.108;2022-08-25T08:55:03;197.40;;;176.63;;
4043;SDS011;2036;51.578;7.108;2022-08-25T08:57:38;179.23;;;160.20;;
4043;SDS011;2036;51.578;7.108;2022-08-25T09:00:13;181.33;;;162.07;;
4043;SDS011;2036;51.578;7.108;2022-08-25T09:02:45;210.47;;;190.10;;
4043;SDS011;2036;51.578;7.108;2022-08-25T09:05:25;193.47;;;173.80;;
4043;SDS011;2036;51.578;7.108;2022-08-25T09:07:58;183.07;;;163.30;;
4043;SDS011;2036;51.578;7.108;2022-08-25T09:33:31;164.03;;;129.63;;
4043;SDS011;2036;51.578;7.108;2022-08-25T09:35:58;155.27;;;125.27;;
4043;SDS011;2036;51.578;7.108;2022-08-25T09:38:26;167.13;;;148.90;;
4043;SDS011;2036;51.578;7.108;2022-08-25T09:40:57;157.97;;;134.77;;
4043;SDS011;2036;51.578;7.108;2022-08-25T09:43:30;162.13;;;121.87;;
4043;SDS011;2036;51.578;7.108;2022-08-25T09:48:48;154.60;;;122.17;;
4043;SDS011;2036;51.578;7.108;2022-08-25T10:01:59;162.37;;;138.97;;
4043;SDS011;2036;51.578;7.108;2022-08-25T10:04:49;153.77;;;120.07;;
4043;SDS011;2036;51.578;7.108;2022-08-25T10:09:50;151.20;;;105.43;;
4043;SDS011;2036;51.578;7.108;2022-08-25T10:12:34;157.07;;;118.30;;
4043;SDS011;2036;51.578;7.108;2022-08-25T10:17:42;147.73;;;106.87;;
4043;SDS011;2036;51.578;7.108;2022-08-25T10:20:14;143.03;;;93.87;;
4043;SDS011;2036;51.578;7.108;2022-08-25T10:22:50;140.27;;;88.43;;
4043;SDS011;2036;51.578;7.108;2022-08-25T10:25:21;141.97;;;88.40;;
4043;SDS011;2036;51.578;7.108;2022-08-25T10:31:14;146.87;;;101.60;;
4043;SDS011;2036;51.578;7.108;2022-08-25T10:34:56;136.93;;;87.37;;
4043;SDS011;2036;51.578;7.108;2022-08-25T10:37:27;134.07;;;76.37;;
4043;SDS011;2036;51.578;7.108;2022-08-25T10:43:42;133.53;;;70.83;;
4043;SDS011;2036;51.578;7.108;2022-08-25T10:46:55;133.43;;;64.03;;
4043;SDS011;2036;51.578;7.108;2022-08-25T10:49:51;131.77;;;63.60;;
4043;SDS011;2036;51.578;7.108;2022-08-25T11:01:02;140.07;;;70.47;;
4043;SDS011;2036;51.578;7.108;2022-08-25T11:04:01;135.17;;;62.20;;
4043;SDS011;2036;51.578;7.108;2022-08-25T11:06:59;131.07;;;58.93;;
4043;SDS011;2036;51.578;7.108;2022-08-25T11:09:47;130.10;;;57.60;;
4043;SDS011;2036;51.578;7.108;2022-08-25T11:15:19;128.70;;;58.03;;
4043;SDS011;2036;51.578;7.108;2022-08-25T11:17:52;138.60;;;58.30;;
4043;SDS011;2036;51.578;7.108;2022-08-25T11:20:36;128.50;;;53.93;;
4043;SDS011;2036;51.578;7.108;2022-08-25T11:23:36;131.23;;;56.17;;
4043;SDS011;2036;51.578;7.108;2022-08-25T11:26:09;125.33;;;54.67;;
4043;SDS011;2036;51.578;7.108;2022-08-25T11:28:56;128.73;;;57.17;;
4043;SDS011;2036;51.578;7.108;2022-08-25T11:31:45;123.47;;;49.80;;
4043;SDS011;2036;51.578;7.108;2022-08-25T11:34:15;125.57;;;51.17;;
4043;SDS011;2036;51.578;7.108;2022-08-25T11:36:48;128.37;;;54.63;;
4043;SDS011;2036;51.578;7.108;2022-08-25T11:42:13;129.37;;;57.80;;
4043;SDS011;2036;51.578;7.108;2022-08-25T11:48:27;124.77;;;50.67;;
4043;SDS011;2036;51.578;7.108;2022-08-25T11:51:34;126.87;;;55.40;;
4043;SDS011;2036;51.578;7.108;2022-08-25T11:54:20;129.40;;;59.00;;
4043;SDS011;2036;51.578;7.108;2022-08-25T11:57:09;125.63;;;52.63;;
4043;SDS011;2036;51.578;7.108;2022-08-25T12:02:31;130.97;;;59.87;;
4043;SDS011;2036;51.578;7.108;2022-08-25T12:10:51;122.40;;;46.80;;
4043;SDS011;2036;51.578;7.108;2022-08-25T12:13:26;123.07;;;48.60;;
4043;SDS011;2036;51.578;7.108;2022-08-25T12:16:06;124.97;;;52.43;;
4043;SDS011;2036;51.578;7.108;2022-08-25T12:30:49;123.47;;;50.93;;
4043;SDS011;2036;51.578;7.108;2022-08-25T12:33:31;128.20;;;55.93;;
4043;SDS011;2036;51.578;7.108;2022-08-25T12:36:35;122.37;;;51.67;;
4043;SDS011;2036;51.578;7.108;2022-08-25T12:39:07;126.67;;;52.30;;
4043;SDS011;2036;51.578;7.108;2022-08-25T12:42:06;124.27;;;55.73;;
4043;SDS011;2036;51.578;7.108;2022-08-25T12:44:44;125.37;;;54.63;;
4043;SDS011;2036;51.578;7.108;2022-08-25T12:49:52;126.03;;;54.27;;
4043;SDS011;2036;51.578;7.108;2022-08-25T12:56:21;124.07;;;56.47;;
4043;SDS011;2036;51.578;7.108;2022-08-25T12:59:16;123.67;;;56.07;;
4043;SDS011;2036;51.578;7.108;2022-08-25T13:05:09;127.33;;;59.67;;
4043;SDS011;2036;51.578;7.108;2022-08-25T13:10:44;131.30;;;63.33;;
4043;SDS011;2036;51.578;7.108;2022-08-25T13:16:18;128.63;;;65.23;;
4043;SDS011;2036;51.578;7.108;2022-08-25T13:18:56;130.10;;;61.73;;
4043;SDS011;2036;51.578;7.108;2022-08-25T13:23:55;126.87;;;61.63;;
4043;SDS011;2036;51.578;7.108;2022-08-25T13:26:29;124.23;;;59.37;;
4043;SDS011;2036;51.578;7.108;2022-08-25T13:31:33;126.00;;;57.03;;
4043;SDS011;2036;51.578;7.108;2022-08-25T13:34:06;124.13;;;56.60;;
4043;SDS011;2036;51.578;7.108;2022-08-25T13:36:42;123.70;;;52.50;;
4043;SDS011;2036;51.578;7.108;2022-08-25T13:39:29;125.97;;;52.47;;
4043;SDS011;2036;51.578;7.108;2022-08-25T13:41:59;121.17;;;49.87;;
4043;SDS011;2036;51.578;7.108;2022-08-25T13:44:29;123.43;;;53.37;;
4043;SDS011;2036;51.578;7.108;2022-08-25T13:47:15;122.50;;;52.37;;
4043;SDS011;2036;51.578;7.108;2022-08-25T13:50:20;124.97;;;53.73;;
4043;SDS011;2036;51.578;7.108;2022-08-25T13:55:35;125.90;;;50.40;;
4043;SDS011;2036;51.578;7.108;2022-08-25T13:58:15;125.60;;;48.97;;
4043;SDS011;2036;51.578;7.108;2022-08-25T14:03:41;122.63;;;52.13;;
4043;SDS011;2036;51.578;7.108;2022-08-25T14:09:34;125.27;;;54.40;;
4043;SDS011;2036;51.578;7.108;2022-08-25T14:16:58;123.87;;;48.93;;
4043;SDS011;2036;51.578;7.108;2022-08-25T14:19:31;123.57;;;49.90;;
4043;SDS011;2036;51.578;7.108;2022-08-25T14:21:58;133.13;;;54.33;;
4043;SDS011;2036;51.578;7.108;2022-08-25T14:24:26;123.87;;;55.57;;
4043;SDS011;2036;51.578;7.108;2022-08-25T14:26:58;130.57;;;64.77;;
4043;SDS011;2036;51.578;7.108;2022-08-25T14:29:25;128.57;;;59.43;;
4043;SDS011;2036;51.578;7.108;2022-08-25T14:31:53;133.57;;;68.67;;
4043;SDS011;2036;51.578;7.108;2022-08-25T14:34:22;133.43;;;74.17;;
4043;SDS011;2036;51.578;7.108;2022-08-25T14:36:55;145.03;;;86.20;;
4043;SDS011;2036;51.578;7.108;2022-08-25T14:39:24;148.73;;;102.13;;
4043;SDS011;2036;51.578;7.108;2022-08-25T14:41:51;144.87;;;95.30;;
4043;SDS011;2036;51.578;7.108;2022-08-25T14:44:18;157.67;;;120.70;;
4043;SDS011;2036;51.578;7.108;2022-08-25T14:46:47;153.17;;;120.30;;
4043;SDS011;2036;51.578;7.108;2022-08-25T14:49:19;153.23;;;120.10;;
4043;SDS011;2036;51.578;7.108;2022-08-25T14:51:53;157.20;;;127.10;;
4043;SDS011;2036;51.578;7.108;2022-08-25T14:54:22;164.97;;;143.53;;
4043;SDS011;2036;51.578;7.108;2022-08-25T14:56:51;166.13;;;146.27;;
4043;SDS011;2036;51.578;7.108;2022-08-25T14:59:17;164.27;;;138.00;;
4043;SDS011;2036;51.578;7.108;2022-08-25T15:01:44;166.10;;;144.07;;
4043;SDS011;2036;51.578;7.108;2022-08-25T15:04:11;162.83;;;136.33;;
4043;SDS011;2036;51.578;7.108;2022-08-25T15:06:41;163.07;;;142.00;;
4043;SDS011;2036;51.578;7.108;2022-08-25T15:09:08;159.07;;;133.23;;
4043;SDS011;2036;51.578;7.108;2022-08-25T15:11:44;155.87;;;124.97;;
4043;SDS011;2036;51.578;7.108;2022-08-25T15:14:14;162.57;;;127.70;;
4043;SDS011;2036;51.578;7.108;2022-08-25T15:16:47;159.53;;;130.60;;
4043;SDS011;2036;51.578;7.108;2022-08-25T15:19:18;163.03;;;129.47;;
4043;SDS011;2036;51.578;7.108;2022-08-25T15:21:47;155.67;;;120.00;;
4043;SDS011;2036;51.578;7.108;2022-08-25T15:24:14;156.70;;;124.03;;
4043;SDS011;2036;51.578;7.108;2022-08-25T15:26:43;152.23;;;115.13;;
4043;SDS011;2036;51.578;7.108;2022-08-25T15:29:23;161.63;;;133.23;;
4043;SDS011;2036;51.578;7.108;2022-08-25T15:31:54;158.57;;;120.50;;
4043;SDS011;2036;51.578;7.108;2022-08-25T15:34:22;156.17;;;123.23;;
4043;SDS011;2036;51.578;7.108;2022-08-25T15:36:48;161.30;;;131.67;;
4043;SDS011;2036;51.578;7.108;2022-08-25T15:39:15;160.07;;;122.50;;
4043;SDS011;2036;51.578;7.108;2022-08-25T15:41:41;157.90;;;126.53;;
4043;SDS011;2036;51.578;7.108;2022-08-25T15:44:07;153.43;;;122.23;;
4043;SDS011;2036;51.578;7.108;2022-08-25T15:46:35;157.80;;;116.27;;
4043;SDS011;2036;51.578;7.108;2022-08-25T15:49:03;157.67;;;125.53;;
4043;SDS011;2036;51.578;7.108;2022-08-25T15:51:29;158.97;;;125.90;;
4043;SDS011;2036;51.578;7.108;2022-08-25T15:53:55;164.47;;;138.87;;
4043;SDS011;2036;51.578;7.108;2022-08-25T15:56:22;158.67;;;132.37;;
4043;SDS011;2036;51.578;7.108;2022-08-25T15:58:49;158.07;;;122.60;;
4043;SDS011;2036;51.578;7.108;2022-08-25T16:01:22;178.73;;;159.53;;
4043;SDS011;2036;51.578;7.108;2022-08-25T16:03:53;194.23;;;174.27;;
4043;SDS011;2036;51.578;7.108;2022-08-25T16:06:19;197.97;;;177.93;;
4043;SDS011;2036;51.578;7.108;2022-08-25T16:08:45;196.37;;;176.57;;
4043;SDS011;2036;51.578;7.108;2022-08-25T16:11:30;192.23;;;172.63;;
4043;SDS011;2036;51.578;7.108;2022-08-25T16:13:58;201.93;;;181.73;;
4043;SDS011;2036;51.578;7.108;2022-08-25T16:16:27;200.73;;;180.50;;
4043;SDS011;2036;51.578;7.108;2022-08-25T16:18:55;201.10;;;181.03;;
4043;SDS011;2036;51.578;7.108;2022-08-25T16:21:23;200.17;;;180.23;;
4043;SDS011;2036;51.578;7.108;2022-08-25T16:23:52;200.60;;;180.53;;
4043;SDS011;2036;51.578;7.108;2022-08-25T16:26:24;187.97;;;168.57;;
4043;SDS011;2036;51.578;7.108;2022-08-25T16:28:51;187.13;;;167.30;;
4043;SDS011;2036;51.578;7.108;2022-08-25T16:31:18;209.33;;;188.77;;
4043;SDS011;2036;51.578;7.108;2022-08-25T16:33:44;196.83;;;176.60;;
4043;SDS011;2036;51.578;7.108;2022-08-25T16:36:15;202.17;;;180.93;;
4043;SDS011;2036;51.578;7.108;2022-08-25T16:38:44;203.30;;;182.70;;
4043;SDS011;2036;51.578;7.108;2022-08-25T16:41:12;204.20;;;183.90;;
4043;SDS011;2036;51.578;7.108;2022-08-25T16:43:51;206.53;;;186.27;;
4043;SDS011;2036;51.578;7.108;2022-08-25T16:46:18;199.00;;;179.00;;
4043;SDS011;2036;51.578;7.108;2022-08-25T16:48:45;189.73;;;170.17;;
4043;SDS011;2036;51.578;7.108;2022-08-25T16:51:13;188.60;;;168.70;;
4043;SDS011;2036;51.578;7.108;2022-08-25T16:53:43;202.33;;;182.03;;
4043;SDS011;2036;51.578;7.108;2022-08-25T16:56:27;177.13;;;157.77;;
4043;SDS011;2036;51.578;7.108;2022-08-25T16:58:55;184.27;;;164.67;;
4043;SDS011;2036;51.578;7.108;2022-08-25T17:01:26;183.13;;;163.63;;
4043;SDS011;2036;51.578;7.108;2022-08-25T17:03:57;170.13;;;151.33;;